sensor_id;sensor_type;location;lat;lon;timestamp;P1;durP1;ratioP1;P2;durP2;ratioP2
8622;SDS011;4349;47.552;8.904;2023-03-21T00:01:30;3.80;;;3.50;;
8622;SDS011;4349;47.552;8.904;2023-03-21T00:03:58;3.83;;;3.53;;
8622;SDS011;4349;47.552;8.904;2023-03-21T00:06:29;3.40;;;3.30;;
8622;SDS011;4349;47.552;8.904;2023-03-21T00:08:58;3.87;;;3.57;;
8622;SDS011;4349;47.552;8.904;2023-03-21T00:11:26;4.00;;;3.70;;
8622;SDS011;4349;47.552;8.904;2023-03-21T00:13:53;3.50;;;3.40;;
8622;SDS011;4349;47.552;8.904;2023-03-21T00:16:23;4.43;;;4.10;;
8622;SDS011;4349;47.552;8.904;2023-03-21T00:18:55;5.43;;;4.00;;
8622;SDS011;4349;47.552;8.904;2023-03-21T00:21:23;4.13;;;3.83;;
8622;SDS011;4349;47.552;8.904;2023-03-21T00:24:14;3.83;;;3.63;;
8622;SDS011;4349;47.552;8.904;2023-03-21T00:26:42;4.23;;;4.00;;
8622;SDS011;4349;47.552;8.904;2023-03-21T00:29:09;3.90;;;3.60;;
8622;SDS011;4349;47.552;8.904;2023-03-21T00:31:37;3.83;;;3.63;;
8622;SDS011;4349;47.552;8.904;2023-03-21T00:34:04;3.60;;;3.40;;
8622;SDS011;4349;47.552;8.904;2023-03-21T00:36:31;3.90;;;3.67;;
8622;SDS011;4349;47.552;8.904;2023-03-21T00:38:59;4.10;;;3.87;;
8622;SDS011;4349;47.552;8.904;2023-03-21T00:41:28;4.37;;;4.07;;
8622;SDS011;4349;47.552;8.904;2023-03-21T00:44:11;7.30;;;5.63;;
8622;SDS011;4349;47.552;8.904;2023-03-21T00:46:41;5.73;;;5.20;;
8622;SDS011;4349;47.552;8.904;2023-03-21T00:49:26;5.00;;;4.57;;
8622;SDS011;4349;47.552;8.904;2023-03-21T00:51:53;4.40;;;4.13;;
8622;SDS011;4349;47.552;8.904;2023-03-21T00:54:30;4.27;;;4.07;;
8622;SDS011;4349;47.552;8.904;2023-03-21T00:56:59;4.37;;;4.07;;
8622;SDS011;4349;47.552;8.904;2023-03-21T00:59:26;3.80;;;3.60;;
8622;SDS011;4349;47.552;8.904;2023-03-21T01:01:54;3.70;;;3.50;;
8622;SDS011;4349;47.552;8.904;2023-03-21T01:04:22;3.77;;;3.67;;
8622;SDS011;4349;47.552;8.904;2023-03-21T01:06:52;3.93;;;3.73;;
8622;SDS011;4349;47.552;8.904;2023-03-21T01:09:20;4.20;;;4.00;;
8622;SDS011;4349;47.552;8.904;2023-03-21T01:11:49;4.17;;;3.90;;
8622;SDS011;4349;47.552;8.904;2023-03-21T01:14:19;3.87;;;3.57;;
8622;SDS011;4349;47.552;8.904;2023-03-21T01:16:49;3.83;;;3.60;;
8622;SDS011;4349;47.552;8.904;2023-03-21T01:19:17;4.47;;;4.17;;
8622;SDS011;4349;47.552;8.904;2023-03-21T01:22:05;4.30;;;4.00;;
8622;SDS011;4349;47.552;8.904;2023-03-21T01:24:33;3.93;;;3.73;;
8622;SDS011;4349;47.552;8.904;2023-03-21T01:27:12;3.80;;;3.60;;
8622;SDS011;4349;47.552;8.904;2023-03-21T01:29:40;3.90;;;3.70;;
8622;SDS011;4349;47.552;8.904;2023-03-21T01:32:08;3.90;;;3.70;;
8622;SDS011;4349;47.552;8.904;2023-03-21T01:34:36;4.20;;;3.97;;
8622;SDS011;4349;47.552;8.904;2023-03-21T01:37:03;3.80;;;3.50;;
8622;SDS011;4349;47.552;8.904;2023-03-21T01:39:38;3.47;;;3.30;;
8622;SDS011;4349;47.552;8.904;2023-03-21T01:42:08;3.80;;;3.60;;
8622;SDS011;4349;47.552;8.904;2023-03-21T01:44:51;3.63;;;3.43;;
8622;SDS011;4349;47.552;8.904;2023-03-21T01:47:18;3.83;;;3.67;;
8622;SDS011;4349;47.552;8.904;2023-03-21T01:50:16;3.93;;;3.73;;
8622;SDS011;4349;47.552;8.904;2023-03-21T01:53:06;4.10;;;3.77;;
8622;SDS011;4349;47.552;8.904;2023-03-21T01:55:34;4.20;;;3.77;;
8622;SDS011;4349;47.552;8.904;2023-03-21T01:58:18;3.93;;;3.70;;
8622;SDS011;4349;47.552;8.904;2023-03-21T02:01:00;3.80;;;3.50;;
8622;SDS011;4349;47.552;8.904;2023-03-21T02:03:37;3.57;;;3.37;;
8622;SDS011;4349;47.552;8.904;2023-03-21T02:06:27;4.07;;;3.77;;
8622;SDS011;4349;47.552;8.904;2023-03-21T02:09:05;4.00;;;3.80;;
8622;SDS011;4349;47.552;8.904;2023-03-21T02:11:34;3.67;;;3.47;;
8622;SDS011;4349;47.552;8.904;2023-03-21T02:14:02;3.70;;;3.50;;
8622;SDS011;4349;47.552;8.904;2023-03-21T02:16:48;4.10;;;3.90;;
8622;SDS011;4349;47.552;8.904;2023-03-21T02:19:27;3.87;;;3.60;;
8622;SDS011;4349;47.552;8.904;2023-03-21T02:24:56;3.37;;;3.27;;
8622;SDS011;4349;47.552;8.904;2023-03-21T02:27:36;3.50;;;3.30;;
8622;SDS011;4349;47.552;8.904;2023-03-21T02:35:54;3.50;;;3.20;;
8622;SDS011;4349;47.552;8.904;2023-03-21T02:38:41;3.50;;;3.40;;
8622;SDS011;4349;47.552;8.904;2023-03-21T02:41:15;3.60;;;3.30;;
8622;SDS011;4349;47.552;8.904;2023-03-21T02:43:46;3.70;;;3.40;;
8622;SDS011;4349;47.552;8.904;2023-03-21T02:46:17;3.80;;;3.60;;
8622;SDS011;4349;47.552;8.904;2023-03-21T02:49:02;3.63;;;3.50;;
8622;SDS011;4349;47.552;8.904;2023-03-21T02:51:33;3.70;;;3.50;;
8622;SDS011;4349;47.552;8.904;2023-03-21T02:54:03;3.63;;;3.43;;
8622;SDS011;4349;47.552;8.904;2023-03-21T02:56:52;4.10;;;3.80;;
8622;SDS011;4349;47.552;8.904;2023-03-21T02:59:21;3.50;;;3.30;;
8622;SDS011;4349;47.552;8.904;2023-03-21T03:01:51;3.60;;;3.40;;
8622;SDS011;4349;47.552;8.904;2023-03-21T03:04:19;3.30;;;3.10;;
8622;SDS011;4349;47.552;8.904;2023-03-21T03:06:52;3.27;;;3.07;;
8622;SDS011;4349;47.552;8.904;2023-03-21T03:09:26;3.97;;;3.67;;
8622;SDS011;4349;47.552;8.904;2023-03-21T03:11:59;4.60;;;3.17;;
8622;SDS011;4349;47.552;8.904;2023-03-21T03:14:43;3.90;;;3.70;;
8622;SDS011;4349;47.552;8.904;2023-03-21T03:17:37;3.40;;;3.20;;
8622;SDS011;4349;47.552;8.904;2023-03-21T03:22:53;3.90;;;3.70;;
8622;SDS011;4349;47.552;8.904;2023-03-21T03:25:25;3.90;;;3.60;;
8622;SDS011;4349;47.552;8.904;2023-03-21T03:28:08;3.50;;;3.30;;
8622;SDS011;4349;47.552;8.904;2023-03-21T03:30:37;3.83;;;3.53;;
8622;SDS011;4349;47.552;8.904;2023-03-21T03:33:17;3.40;;;3.20;;
8622;SDS011;4349;47.552;8.904;2023-03-21T03:35:48;3.30;;;3.20;;
8622;SDS011;4349;47.552;8.904;2023-03-21T03:38:31;3.70;;;3.50;;
8622;SDS011;4349;47.552;8.904;2023-03-21T03:41:05;3.53;;;3.37;;
8622;SDS011;4349;47.552;8.904;2023-03-21T03:43:44;3.97;;;3.67;;
8622;SDS011;4349;47.552;8.904;2023-03-21T03:46:15;3.53;;;3.30;;
8622;SDS011;4349;47.552;8.904;2023-03-21T03:48:45;3.57;;;3.40;;
8622;SDS011;4349;47.552;8.904;2023-03-21T03:51:16;3.37;;;3.27;;
8622;SDS011;4349;47.552;8.904;2023-03-21T03:54:15;3.60;;;3.50;;
8622;SDS011;4349;47.552;8.904;2023-03-21T03:56:46;3.83;;;3.63;;
8622;SDS011;4349;47.552;8.904;2023-03-21T03:59:14;4.10;;;3.70;;
8622;SDS011;4349;47.552;8.904;2023-03-21T04:02:07;3.53;;;3.40;;
8622;SDS011;4349;47.552;8.904;2023-03-21T04:04:35;3.20;;;3.10;;
8622;SDS011;4349;47.552;8.904;2023-03-21T04:07:03;3.83;;;3.63;;
8622;SDS011;4349;47.552;8.904;2023-03-21T04:09:32;3.40;;;3.20;;
8622;SDS011;4349;47.552;8.904;2023-03-21T04:12:12;3.87;;;3.77;;
8622;SDS011;4349;47.552;8.904;2023-03-21T04:14:50;3.87;;;3.67;;
8622;SDS011;4349;47.552;8.904;2023-03-21T04:17:20;4.10;;;3.80;;
8622;SDS011;4349;47.552;8.904;2023-03-21T04:19:47;3.87;;;3.57;;
8622;SDS011;4349;47.552;8.904;2023-03-21T04:22:22;3.93;;;3.63;;
8622;SDS011;4349;47.552;8.904;2023-03-21T04:24:51;4.57;;;3.67;;
8622;SDS011;4349;47.552;8.904;2023-03-21T04:27:20;3.83;;;3.63;;
8622;SDS011;4349;47.552;8.904;2023-03-21T04:30:04;4.03;;;3.53;;
8622;SDS011;4349;47.552;8.904;2023-03-21T04:32:46;4.00;;;3.70;;
8622;SDS011;4349;47.552;8.904;2023-03-21T04:35:19;5.47;;;3.50;;
8622;SDS011;4349;47.552;8.904;2023-03-21T04:37:47;3.30;;;3.20;;
8622;SDS011;4349;47.552;8.904;2023-03-21T04:40:14;3.50;;;3.30;;
8622;SDS011;4349;47.552;8.904;2023-03-21T04:42:46;3.70;;;3.50;;
8622;SDS011;4349;47.552;8.904;2023-03-21T04:45:14;3.80;;;3.60;;
8622;SDS011;4349;47.552;8.904;2023-03-21T04:47:43;3.87;;;3.67;;
8622;SDS011;4349;47.552;8.904;2023-03-21T04:50:11;3.80;;;3.50;;
8622;SDS011;4349;47.552;8.904;2023-03-21T04:52:39;3.53;;;3.33;;
8622;SDS011;4349;47.552;8.904;2023-03-21T04:55:07;3.50;;;3.30;;
8622;SDS011;4349;47.552;8.904;2023-03-21T04:57:37;3.63;;;3.40;;
8622;SDS011;4349;47.552;8.904;2023-03-21T05:00:06;3.70;;;3.40;;
8622;SDS011;4349;47.552;8.904;2023-03-21T05:02:39;3.23;;;3.03;;
8622;SDS011;4349;47.552;8.904;2023-03-21T05:05:07;3.40;;;3.20;;
8622;SDS011;4349;47.552;8.904;2023-03-21T05:07:36;3.53;;;3.33;;
8622;SDS011;4349;47.552;8.904;2023-03-21T05:10:04;3.70;;;3.50;;
8622;SDS011;4349;47.552;8.904;2023-03-21T05:12:32;4.20;;;4.00;;
8622;SDS011;4349;47.552;8.904;2023-03-21T05:15:00;3.80;;;3.60;;
8622;SDS011;4349;47.552;8.904;2023-03-21T05:17:28;4.63;;;4.17;;
8622;SDS011;4349;47.552;8.904;2023-03-21T05:19:57;4.50;;;4.10;;
8622;SDS011;4349;47.552;8.904;2023-03-21T05:22:25;4.20;;;3.90;;
8622;SDS011;4349;47.552;8.904;2023-03-21T05:24:54;4.60;;;4.20;;
8622;SDS011;4349;47.552;8.904;2023-03-21T05:27:47;4.80;;;4.50;;
8622;SDS011;4349;47.552;8.904;2023-03-21T05:30:23;4.67;;;4.37;;
8622;SDS011;4349;47.552;8.904;2023-03-21T05:32:57;4.93;;;4.53;;
8622;SDS011;4349;47.552;8.904;2023-03-21T05:35:25;4.80;;;4.33;;
8622;SDS011;4349;47.552;8.904;2023-03-21T05:37:55;5.30;;;4.80;;
8622;SDS011;4349;47.552;8.904;2023-03-21T05:40:24;5.53;;;5.00;;
8622;SDS011;4349;47.552;8.904;2023-03-21T05:42:55;5.17;;;4.77;;
8622;SDS011;4349;47.552;8.904;2023-03-21T05:45:23;4.77;;;4.37;;
8622;SDS011;4349;47.552;8.904;2023-03-21T05:47:52;5.03;;;4.63;;
8622;SDS011;4349;47.552;8.904;2023-03-21T05:50:25;4.70;;;4.30;;
8622;SDS011;4349;47.552;8.904;2023-03-21T05:53:05;5.17;;;4.63;;
8622;SDS011;4349;47.552;8.904;2023-03-21T05:55:33;4.47;;;4.17;;
8622;SDS011;4349;47.552;8.904;2023-03-21T05:58:03;4.27;;;4.00;;
8622;SDS011;4349;47.552;8.904;2023-03-21T06:00:31;4.80;;;4.50;;
8622;SDS011;4349;47.552;8.904;2023-03-21T06:03:14;4.70;;;4.30;;
8622;SDS011;4349;47.552;8.904;2023-03-21T06:05:56;4.07;;;3.80;;
8622;SDS011;4349;47.552;8.904;2023-03-21T06:08:30;4.13;;;3.93;;
8622;SDS011;4349;47.552;8.904;2023-03-21T06:10:58;4.10;;;3.80;;
8622;SDS011;4349;47.552;8.904;2023-03-21T06:13:27;4.43;;;4.13;;
8622;SDS011;4349;47.552;8.904;2023-03-21T06:15:56;5.53;;;4.17;;
8622;SDS011;4349;47.552;8.904;2023-03-21T06:18:24;4.30;;;4.10;;
8622;SDS011;4349;47.552;8.904;2023-03-21T06:21:01;4.83;;;3.80;;
8622;SDS011;4349;47.552;8.904;2023-03-21T06:23:30;4.47;;;4.17;;
8622;SDS011;4349;47.552;8.904;2023-03-21T06:25:57;5.83;;;4.40;;
8622;SDS011;4349;47.552;8.904;2023-03-21T06:28:26;5.77;;;4.37;;
8622;SDS011;4349;47.552;8.904;2023-03-21T06:30:53;4.73;;;4.23;;
8622;SDS011;4349;47.552;8.904;2023-03-21T06:33:23;4.07;;;3.87;;
8622;SDS011;4349;47.552;8.904;2023-03-21T06:35:51;4.70;;;4.40;;
8622;SDS011;4349;47.552;8.904;2023-03-21T06:38:21;4.50;;;4.20;;
8622;SDS011;4349;47.552;8.904;2023-03-21T06:40:49;5.20;;;4.83;;
8622;SDS011;4349;47.552;8.904;2023-03-21T06:43:16;5.57;;;5.10;;
8622;SDS011;4349;47.552;8.904;2023-03-21T06:45:45;4.60;;;4.20;;
8622;SDS011;4349;47.552;8.904;2023-03-21T06:48:12;4.30;;;4.10;;
8622;SDS011;4349;47.552;8.904;2023-03-21T06:50:48;4.50;;;4.30;;
8622;SDS011;4349;47.552;8.904;2023-03-21T06:53:16;4.40;;;4.00;;
8622;SDS011;4349;47.552;8.904;2023-03-21T06:56:06;3.73;;;3.63;;
8622;SDS011;4349;47.552;8.904;2023-03-21T06:58:34;4.10;;;3.80;;
8622;SDS011;4349;47.552;8.904;2023-03-21T07:01:03;4.40;;;4.10;;
8622;SDS011;4349;47.552;8.904;2023-03-21T07:03:35;4.37;;;4.07;;
8622;SDS011;4349;47.552;8.904;2023-03-21T07:06:04;4.20;;;4.00;;
8622;SDS011;4349;47.552;8.904;2023-03-21T07:08:33;4.23;;;3.83;;
8622;SDS011;4349;47.552;8.904;2023-03-21T07:11:03;3.97;;;3.70;;
8622;SDS011;4349;47.552;8.904;2023-03-21T07:13:32;3.40;;;3.30;;
8622;SDS011;4349;47.552;8.904;2023-03-21T07:16:02;3.80;;;3.60;;
8622;SDS011;4349;47.552;8.904;2023-03-21T07:18:30;3.90;;;3.60;;
8622;SDS011;4349;47.552;8.904;2023-03-21T07:20:58;3.93;;;3.80;;
8622;SDS011;4349;47.552;8.904;2023-03-21T07:23:25;3.93;;;3.73;;
8622;SDS011;4349;47.552;8.904;2023-03-21T07:25:53;11.60;;;7.40;;
8622;SDS011;4349;47.552;8.904;2023-03-21T07:28:21;9.47;;;8.13;;
8622;SDS011;4349;47.552;8.904;2023-03-21T07:30:54;8.27;;;7.30;;
8622;SDS011;4349;47.552;8.904;2023-03-21T07:33:22;9.43;;;7.80;;
8622;SDS011;4349;47.552;8.904;2023-03-21T07:35:51;7.30;;;6.70;;
8622;SDS011;4349;47.552;8.904;2023-03-21T07:38:19;9.07;;;7.20;;
8622;SDS011;4349;47.552;8.904;2023-03-21T07:40:47;7.33;;;6.63;;
8622;SDS011;4349;47.552;8.904;2023-03-21T07:43:15;10.17;;;7.00;;
8622;SDS011;4349;47.552;8.904;2023-03-21T07:45:50;7.37;;;6.63;;
8622;SDS011;4349;47.552;8.904;2023-03-21T07:48:20;6.57;;;5.97;;
8622;SDS011;4349;47.552;8.904;2023-03-21T07:50:48;6.60;;;5.87;;
8622;SDS011;4349;47.552;8.904;2023-03-21T07:53:15;7.70;;;6.10;;
8622;SDS011;4349;47.552;8.904;2023-03-21T07:55:42;6.80;;;6.30;;
8622;SDS011;4349;47.552;8.904;2023-03-21T07:58:10;8.00;;;7.20;;
8622;SDS011;4349;47.552;8.904;2023-03-21T08:00:37;6.70;;;5.90;;
8622;SDS011;4349;47.552;8.904;2023-03-21T08:03:05;8.90;;;7.77;;
8622;SDS011;4349;47.552;8.904;2023-03-21T08:05:35;9.47;;;8.67;;
8622;SDS011;4349;47.552;8.904;2023-03-21T08:08:03;9.43;;;8.60;;
8622;SDS011;4349;47.552;8.904;2023-03-21T08:10:31;10.23;;;9.07;;
8622;SDS011;4349;47.552;8.904;2023-03-21T08:12:59;10.50;;;9.50;;
8622;SDS011;4349;47.552;8.904;2023-03-21T08:15:27;11.23;;;10.23;;
8622;SDS011;4349;47.552;8.904;2023-03-21T08:17:55;10.93;;;9.93;;
8622;SDS011;4349;47.552;8.904;2023-03-21T08:20:22;10.20;;;9.30;;
8622;SDS011;4349;47.552;8.904;2023-03-21T08:22:51;10.50;;;9.00;;
8622;SDS011;4349;47.552;8.904;2023-03-21T08:25:19;10.13;;;9.33;;
8622;SDS011;4349;47.552;8.904;2023-03-21T08:27:47;8.83;;;8.10;;
8622;SDS011;4349;47.552;8.904;2023-03-21T08:30:16;8.33;;;7.73;;
8622;SDS011;4349;47.552;8.904;2023-03-21T08:32:44;8.50;;;7.83;;
8622;SDS011;4349;47.552;8.904;2023-03-21T08:35:12;7.43;;;6.83;;
8622;SDS011;4349;47.552;8.904;2023-03-21T08:37:41;7.97;;;7.27;;
8622;SDS011;4349;47.552;8.904;2023-03-21T08:40:11;8.63;;;6.77;;
8622;SDS011;4349;47.552;8.904;2023-03-21T08:42:39;7.37;;;6.77;;
8622;SDS011;4349;47.552;8.904;2023-03-21T08:45:07;8.43;;;7.63;;
8622;SDS011;4349;47.552;8.904;2023-03-21T08:47:35;7.17;;;6.47;;
8622;SDS011;4349;47.552;8.904;2023-03-21T08:50:03;7.73;;;7.03;;
8622;SDS011;4349;47.552;8.904;2023-03-21T08:52:31;7.00;;;6.57;;
8622;SDS011;4349;47.552;8.904;2023-03-21T08:54:59;7.10;;;6.47;;
8622;SDS011;4349;47.552;8.904;2023-03-21T08:57:29;6.67;;;6.23;;
8622;SDS011;4349;47.552;8.904;2023-03-21T08:59:56;7.47;;;6.43;;
8622;SDS011;4349;47.552;8.904;2023-03-21T09:02:24;6.33;;;5.90;;
8622;SDS011;4349;47.552;8.904;2023-03-21T09:04:51;6.23;;;5.83;;
8622;SDS011;4349;47.552;8.904;2023-03-21T09:07:20;6.00;;;5.60;;
8622;SDS011;4349;47.552;8.904;2023-03-21T09:09:51;5.77;;;5.30;;
8622;SDS011;4349;47.552;8.904;2023-03-21T09:12:40;5.77;;;5.30;;
8622;SDS011;4349;47.552;8.904;2023-03-21T09:15:08;6.30;;;5.70;;
8622;SDS011;4349;47.552;8.904;2023-03-21T09:17:37;5.23;;;4.80;;
8622;SDS011;4349;47.552;8.904;2023-03-21T09:20:09;5.07;;;4.63;;
8622;SDS011;4349;47.552;8.904;2023-03-21T09:22:44;5.00;;;4.53;;
8622;SDS011;4349;47.552;8.904;2023-03-21T09:25:12;4.40;;;4.10;;
8622;SDS011;4349;47.552;8.904;2023-03-21T09:27:42;5.07;;;4.70;;
8622;SDS011;4349;47.552;8.904;2023-03-21T09:30:11;5.23;;;4.90;;
8622;SDS011;4349;47.552;8.904;2023-03-21T09:32:38;4.97;;;4.67;;
8622;SDS011;4349;47.552;8.904;2023-03-21T09:35:07;4.90;;;4.60;;
8622;SDS011;4349;47.552;8.904;2023-03-21T09:37:36;4.30;;;4.10;;
8622;SDS011;4349;47.552;8.904;2023-03-21T09:40:12;4.77;;;4.37;;
8622;SDS011;4349;47.552;8.904;2023-03-21T09:42:43;3.97;;;3.77;;
8622;SDS011;4349;47.552;8.904;2023-03-21T09:45:15;4.07;;;3.87;;
8622;SDS011;4349;47.552;8.904;2023-03-21T09:47:46;4.27;;;3.97;;
8622;SDS011;4349;47.552;8.904;2023-03-21T09:50:19;3.80;;;3.63;;
8622;SDS011;4349;47.552;8.904;2023-03-21T09:52:49;3.73;;;3.53;;
8622;SDS011;4349;47.552;8.904;2023-03-21T09:55:18;3.17;;;3.07;;
8622;SDS011;4349;47.552;8.904;2023-03-21T09:57:48;3.17;;;3.07;;
8622;SDS011;4349;47.552;8.904;2023-03-21T10:00:19;3.20;;;3.10;;
8622;SDS011;4349;47.552;8.904;2023-03-21T10:02:51;3.37;;;3.27;;
8622;SDS011;4349;47.552;8.904;2023-03-21T10:05:23;4.67;;;3.33;;
8622;SDS011;4349;47.552;8.904;2023-03-21T10:07:51;3.13;;;2.93;;
8622;SDS011;4349;47.552;8.904;2023-03-21T10:10:21;3.50;;;3.30;;
8622;SDS011;4349;47.552;8.904;2023-03-21T10:12:53;3.63;;;3.40;;
8622;SDS011;4349;47.552;8.904;2023-03-21T10:15:22;3.00;;;2.80;;
8622;SDS011;4349;47.552;8.904;2023-03-21T10:17:51;3.43;;;3.23;;
8622;SDS011;4349;47.552;8.904;2023-03-21T10:20:21;3.33;;;3.13;;
8622;SDS011;4349;47.552;8.904;2023-03-21T10:22:49;3.70;;;3.50;;
8622;SDS011;4349;47.552;8.904;2023-03-21T10:25:18;3.50;;;3.30;;
8622;SDS011;4349;47.552;8.904;2023-03-21T10:27:47;3.53;;;3.43;;
8622;SDS011;4349;47.552;8.904;2023-03-21T10:30:25;3.77;;;3.57;;
8622;SDS011;4349;47.552;8.904;2023-03-21T10:32:55;3.97;;;3.87;;
8622;SDS011;4349;47.552;8.904;2023-03-21T10:35:25;4.17;;;3.97;;
8622;SDS011;4349;47.552;8.904;2023-03-21T10:37:52;5.10;;;4.00;;
8622;SDS011;4349;47.552;8.904;2023-03-21T10:40:20;4.10;;;4.00;;
8622;SDS011;4349;47.552;8.904;2023-03-21T10:42:47;4.47;;;4.07;;
8622;SDS011;4349;47.552;8.904;2023-03-21T10:45:16;4.47;;;4.20;;
8622;SDS011;4349;47.552;8.904;2023-03-21T10:47:47;4.83;;;4.53;;
8622;SDS011;4349;47.552;8.904;2023-03-21T10:50:16;4.43;;;4.17;;
8622;SDS011;4349;47.552;8.904;2023-03-21T10:52:46;5.10;;;4.70;;
8622;SDS011;4349;47.552;8.904;2023-03-21T10:55:19;4.63;;;4.43;;
8622;SDS011;4349;47.552;8.904;2023-03-21T10:57:47;4.57;;;4.37;;
8622;SDS011;4349;47.552;8.904;2023-03-21T11:00:20;5.47;;;4.97;;
8622;SDS011;4349;47.552;8.904;2023-03-21T11:02:49;5.40;;;5.10;;
8622;SDS011;4349;47.552;8.904;2023-03-21T11:05:19;5.67;;;5.27;;
8622;SDS011;4349;47.552;8.904;2023-03-21T11:07:48;4.97;;;4.67;;
8622;SDS011;4349;47.552;8.904;2023-03-21T11:10:26;5.10;;;4.80;;
8622;SDS011;4349;47.552;8.904;2023-03-21T11:12:54;4.90;;;4.60;;
8622;SDS011;4349;47.552;8.904;2023-03-21T11:15:27;5.23;;;5.03;;
8622;SDS011;4349;47.552;8.904;2023-03-21T11:17:56;5.77;;;5.27;;
8622;SDS011;4349;47.552;8.904;2023-03-21T11:20:24;5.47;;;5.17;;
8622;SDS011;4349;47.552;8.904;2023-03-21T11:22:53;5.37;;;4.97;;
8622;SDS011;4349;47.552;8.904;2023-03-21T11:25:21;5.13;;;4.83;;
8622;SDS011;4349;47.552;8.904;2023-03-21T11:27:49;5.60;;;5.20;;
8622;SDS011;4349;47.552;8.904;2023-03-21T11:30:19;5.80;;;5.40;;
8622;SDS011;4349;47.552;8.904;2023-03-21T11:32:49;5.87;;;5.57;;
8622;SDS011;4349;47.552;8.904;2023-03-21T11:35:19;5.07;;;4.77;;
8622;SDS011;4349;47.552;8.904;2023-03-21T11:37:49;5.60;;;5.17;;
8622;SDS011;4349;47.552;8.904;2023-03-21T11:40:19;5.70;;;4.83;;
8622;SDS011;4349;47.552;8.904;2023-03-21T11:42:47;5.77;;;5.37;;
8622;SDS011;4349;47.552;8.904;2023-03-21T11:45:17;5.43;;;5.07;;
8622;SDS011;4349;47.552;8.904;2023-03-21T11:47:45;5.57;;;5.27;;
8622;SDS011;4349;47.552;8.904;2023-03-21T11:50:15;5.50;;;5.10;;
8622;SDS011;4349;47.552;8.904;2023-03-21T11:52:46;5.13;;;4.83;;
8622;SDS011;4349;47.552;8.904;2023-03-21T11:55:23;5.63;;;5.23;;
8622;SDS011;4349;47.552;8.904;2023-03-21T11:57:58;5.87;;;5.43;;
8622;SDS011;4349;47.552;8.904;2023-03-21T12:00:40;5.80;;;5.30;;
8622;SDS011;4349;47.552;8.904;2023-03-21T12:03:20;5.27;;;4.90;;
8622;SDS011;4349;47.552;8.904;2023-03-21T12:05:59;7.07;;;5.40;;
8622;SDS011;4349;47.552;8.904;2023-03-21T12:08:31;4.83;;;4.63;;
8622;SDS011;4349;47.552;8.904;2023-03-21T12:11:02;5.30;;;5.00;;
8622;SDS011;4349;47.552;8.904;2023-03-21T12:13:37;5.00;;;4.80;;
8622;SDS011;4349;47.552;8.904;2023-03-21T12:16:14;5.30;;;5.00;;
8622;SDS011;4349;47.552;8.904;2023-03-21T12:18:51;5.73;;;5.43;;
8622;SDS011;4349;47.552;8.904;2023-03-21T12:21:25;5.40;;;5.10;;
8622;SDS011;4349;47.552;8.904;2023-03-21T12:24:00;5.20;;;4.90;;
8622;SDS011;4349;47.552;8.904;2023-03-21T12:26:30;5.00;;;4.53;;
8622;SDS011;4349;47.552;8.904;2023-03-21T12:29:02;4.07;;;3.93;;
8622;SDS011;4349;47.552;8.904;2023-03-21T12:31:38;4.10;;;3.90;;
8622;SDS011;4349;47.552;8.904;2023-03-21T12:34:12;4.60;;;4.30;;
8622;SDS011;4349;47.552;8.904;2023-03-21T12:36:56;4.00;;;3.80;;
8622;SDS011;4349;47.552;8.904;2023-03-21T12:39:28;3.50;;;3.37;;
8622;SDS011;4349;47.552;8.904;2023-03-21T12:42:01;3.20;;;3.00;;
8622;SDS011;4349;47.552;8.904;2023-03-21T12:44:31;2.97;;;2.87;;
8622;SDS011;4349;47.552;8.904;2023-03-21T12:47:01;2.80;;;2.60;;
8622;SDS011;4349;47.552;8.904;2023-03-21T12:49:30;2.83;;;2.63;;
8622;SDS011;4349;47.552;8.904;2023-03-21T12:51:59;3.03;;;2.83;;
8622;SDS011;4349;47.552;8.904;2023-03-21T12:54:30;3.50;;;3.27;;
8622;SDS011;4349;47.552;8.904;2023-03-21T12:56:59;2.80;;;2.70;;
8622;SDS011;4349;47.552;8.904;2023-03-21T12:59:30;2.90;;;2.80;;
8622;SDS011;4349;47.552;8.904;2023-03-21T13:01:59;3.50;;;2.83;;
8622;SDS011;4349;47.552;8.904;2023-03-21T13:04:31;3.40;;;3.20;;
8622;SDS011;4349;47.552;8.904;2023-03-21T13:07:01;3.13;;;3.00;;
8622;SDS011;4349;47.552;8.904;2023-03-21T13:09:32;3.27;;;3.07;;
8622;SDS011;4349;47.552;8.904;2023-03-21T13:12:05;2.70;;;2.60;;
8622;SDS011;4349;47.552;8.904;2023-03-21T13:14:37;3.37;;;3.17;;
8622;SDS011;4349;47.552;8.904;2023-03-21T13:17:08;3.17;;;2.87;;
8622;SDS011;4349;47.552;8.904;2023-03-21T13:19:38;3.03;;;2.83;;
8622;SDS011;4349;47.552;8.904;2023-03-21T13:22:09;3.00;;;2.90;;
8622;SDS011;4349;47.552;8.904;2023-03-21T13:24:39;3.10;;;2.90;;
8622;SDS011;4349;47.552;8.904;2023-03-21T13:27:14;2.70;;;2.60;;
8622;SDS011;4349;47.552;8.904;2023-03-21T13:29:46;2.70;;;2.60;;
8622;SDS011;4349;47.552;8.904;2023-03-21T13:32:15;3.03;;;2.83;;
8622;SDS011;4349;47.552;8.904;2023-03-21T13:34:43;2.97;;;2.77;;
8622;SDS011;4349;47.552;8.904;2023-03-21T13:37:14;2.60;;;2.50;;
8622;SDS011;4349;47.552;8.904;2023-03-21T13:39:45;2.50;;;2.40;;
8622;SDS011;4349;47.552;8.904;2023-03-21T13:42:16;2.80;;;2.60;;
8622;SDS011;4349;47.552;8.904;2023-03-21T13:44:45;2.90;;;2.80;;
8622;SDS011;4349;47.552;8.904;2023-03-21T13:50:13;2.33;;;2.30;;
8622;SDS011;4349;47.552;8.904;2023-03-21T13:52:41;2.27;;;2.17;;
8622;SDS011;4349;47.552;8.904;2023-03-21T13:55:15;2.50;;;2.40;;
8622;SDS011;4349;47.552;8.904;2023-03-21T13:57:45;2.50;;;2.30;;
8622;SDS011;4349;47.552;8.904;2023-03-21T14:00:15;2.43;;;2.33;;
8622;SDS011;4349;47.552;8.904;2023-03-21T14:02:49;2.53;;;2.43;;
8622;SDS011;4349;47.552;8.904;2023-03-21T14:05:21;2.53;;;2.40;;
8622;SDS011;4349;47.552;8.904;2023-03-21T14:07:50;2.30;;;2.30;;
8622;SDS011;4349;47.552;8.904;2023-03-21T14:10:25;3.60;;;3.30;;
8622;SDS011;4349;47.552;8.904;2023-03-21T14:12:54;2.70;;;2.60;;
8622;SDS011;4349;47.552;8.904;2023-03-21T14:15:22;2.60;;;2.50;;
8622;SDS011;4349;47.552;8.904;2023-03-21T14:17:51;2.50;;;2.40;;
8622;SDS011;4349;47.552;8.904;2023-03-21T14:20:20;2.47;;;2.30;;
8622;SDS011;4349;47.552;8.904;2023-03-21T14:22:48;2.33;;;2.33;;
8622;SDS011;4349;47.552;8.904;2023-03-21T14:25:17;2.60;;;2.50;;
8622;SDS011;4349;47.552;8.904;2023-03-21T14:27:47;2.80;;;2.70;;
8622;SDS011;4349;47.552;8.904;2023-03-21T14:30:19;2.77;;;2.57;;
8622;SDS011;4349;47.552;8.904;2023-03-21T14:32:47;2.80;;;2.57;;
8622;SDS011;4349;47.552;8.904;2023-03-21T14:35:15;2.87;;;2.77;;
8622;SDS011;4349;47.552;8.904;2023-03-21T14:37:43;3.00;;;2.80;;
8622;SDS011;4349;47.552;8.904;2023-03-21T14:40:17;2.80;;;2.60;;
8622;SDS011;4349;47.552;8.904;2023-03-21T14:42:47;2.33;;;2.20;;
8622;SDS011;4349;47.552;8.904;2023-03-21T14:45:16;2.57;;;2.33;;
8622;SDS011;4349;47.552;8.904;2023-03-21T14:47:56;2.17;;;1.93;;
8622;SDS011;4349;47.552;8.904;2023-03-21T14:50:24;2.10;;;2.00;;
8622;SDS011;4349;47.552;8.904;2023-03-21T14:52:54;2.17;;;2.10;;
8622;SDS011;4349;47.552;8.904;2023-03-21T14:55:21;2.80;;;2.60;;
8622;SDS011;4349;47.552;8.904;2023-03-21T14:57:50;2.53;;;2.43;;
8622;SDS011;4349;47.552;8.904;2023-03-21T15:00:19;2.70;;;2.40;;
8622;SDS011;4349;47.552;8.904;2023-03-21T15:02:48;3.47;;;2.50;;
8622;SDS011;4349;47.552;8.904;2023-03-21T15:05:17;3.27;;;2.60;;
8622;SDS011;4349;47.552;8.904;2023-03-21T15:07:51;2.67;;;2.57;;
8622;SDS011;4349;47.552;8.904;2023-03-21T15:10:19;2.47;;;2.37;;
8622;SDS011;4349;47.552;8.904;2023-03-21T15:12:52;2.30;;;2.20;;
8622;SDS011;4349;47.552;8.904;2023-03-21T15:15:20;2.10;;;2.10;;
8622;SDS011;4349;47.552;8.904;2023-03-21T15:17:52;2.60;;;2.40;;
8622;SDS011;4349;47.552;8.904;2023-03-21T15:20:22;2.50;;;2.40;;
8622;SDS011;4349;47.552;8.904;2023-03-21T15:22:51;2.87;;;2.30;;
8622;SDS011;4349;47.552;8.904;2023-03-21T15:25:21;4.33;;;2.53;;
8622;SDS011;4349;47.552;8.904;2023-03-21T15:27:51;2.87;;;2.13;;
8622;SDS011;4349;47.552;8.904;2023-03-21T15:30:21;2.30;;;2.20;;
8622;SDS011;4349;47.552;8.904;2023-03-21T15:32:49;2.40;;;2.30;;
8622;SDS011;4349;47.552;8.904;2023-03-21T15:35:18;2.60;;;2.50;;
8622;SDS011;4349;47.552;8.904;2023-03-21T15:37:51;2.50;;;2.40;;
8622;SDS011;4349;47.552;8.904;2023-03-21T15:40:20;2.30;;;2.20;;
8622;SDS011;4349;47.552;8.904;2023-03-21T15:42:47;3.97;;;2.07;;
8622;SDS011;4349;47.552;8.904;2023-03-21T15:45:18;2.20;;;2.10;;
8622;SDS011;4349;47.552;8.904;2023-03-21T15:47:50;2.37;;;2.20;;
8622;SDS011;4349;47.552;8.904;2023-03-21T15:50:23;2.23;;;2.13;;
8622;SDS011;4349;47.552;8.904;2023-03-21T15:52:51;2.10;;;2.00;;
8622;SDS011;4349;47.552;8.904;2023-03-21T15:55:20;2.30;;;2.20;;